Time;durP1;ratioP1;P1;durP2;ratioP2;P2;SDS_P1;SDS_P2;PMS_P1;PMS_P2;Temp;Humidity;BMP_temperature;BMP_pressure;BME280_temperature;BME280_humidity;BME280_pressure;Samples;Min_cycle;Max_cycle;Signal;HPM_P1;HPM_P2
2023/03/02 00:01:25;;;;;;;28.08;25.63;;;0.70;99.90;;;;;;4995142;28;20033;-73
2023/03/02 00:03:52;;;;;;;27.08;24.67;;;0.70;99.90;;;;;;5021560;28;20049;-73
2023/03/02 00:06:20;;;;;;;28.02;25.50;;;0.70;99.90;;;;;;5015700;28;20068;-73
2023/03/02 00:08:47;;;;;;;29.63;25.60;;;0.70;99.90;;;;;;5026297;28;20151;-74
2023/03/02 00:11:14;;;;;;;27.00;24.88;;;0.70;99.90;;;;;;5023017;28;20123;-73
2023/03/02 00:13:41;;;;;;;27.83;25.38;;;0.70;99.90;;;;;;5028925;28;20574;-73
2023/03/02 00:16:08;;;;;;;27.05;24.75;;;0.70;99.90;;;;;;5001620;28;20049;-74
2023/03/02 00:18:35;;;;;;;28.13;25.67;;;0.70;99.90;;;;;;5002866;28;20038;-74
2023/03/02 00:21:02;;;;;;;27.75;25.38;;;0.70;99.90;;;;;;5000927;28;20128;-71
2023/03/02 00:23:29;;;;;;;28.38;25.88;;;0.70;99.90;;;;;;4983124;28;20045;-71
2023/03/02 00:25:56;;;;;;;28.25;25.42;;;0.70;99.90;;;;;;5009503;28;20041;-74
2023/03/02 00:28:22;;;;;;;28.17;25.30;;;0.80;99.90;;;;;;5006644;28;20274;-72
2023/03/02 00:30:49;;;;;;;27.15;24.95;;;0.80;99.90;;;;;;4993382;28;20049;-72
2023/03/02 00:33:16;;;;;;;27.67;25.08;;;0.70;99.90;;;;;;5009395;28;20064;-71
2023/03/02 00:35:43;;;;;;;27.67;25.17;;;0.70;99.90;;;;;;5003417;28;20041;-71
2023/03/02 00:38:09;;;;;;;27.83;25.30;;;0.80;99.90;;;;;;4998470;28;20256;-71
2023/03/02 00:40:36;;;;;;;28.70;26.15;;;0.70;99.90;;;;;;5000979;28;20034;-71
2023/03/02 00:43:03;;;;;;;27.38;24.98;;;0.70;99.90;;;;;;5000571;28;20151;-71
2023/03/02 00:45:30;;;;;;;27.58;25.15;;;0.70;99.90;;;;;;5006383;28;20238;-72
2023/03/02 00:47:57;;;;;;;28.23;25.85;;;0.60;99.90;;;;;;4998977;28;20053;-73
2023/03/02 00:50:24;;;;;;;29.00;26.17;;;0.60;99.90;;;;;;4998841;28;20052;-72
2023/03/02 00:52:50;;;;;;;28.65;26.15;;;0.60;99.90;;;;;;5000134;28;20043;-72
2023/03/02 00:55:17;;;;;;;29.45;26.75;;;0.50;99.90;;;;;;4996704;28;20041;-72
2023/03/02 00:57:53;;;;;;;29.65;26.95;;;0.50;99.90;;;;;;5004106;28;20215;-72
2023/03/02 01:00:27;;;;;;;29.85;27.00;;;0.50;99.90;;;;;;5005282;28;21406;-72
2023/03/02 01:02:58;;;;;;;28.75;26.27;;;0.50;99.90;;;;;;4998603;28;20061;-71
2023/03/02 01:05:25;;;;;;;29.75;26.95;;;0.50;99.90;;;;;;4978844;28;20153;-73
2023/03/02 01:07:52;;;;;;;28.45;26.05;;;0.40;99.90;;;;;;5021359;28;20547;-73
2023/03/02 01:10:19;;;;;;;28.15;25.75;;;0.40;99.90;;;;;;4981810;28;20601;-73
2023/03/02 01:12:45;;;;;;;30.30;27.30;;;0.30;99.90;;;;;;5005776;28;20037;-74
2023/03/02 01:15:12;;;;;;;28.00;25.55;;;0.20;99.90;;;;;;5008170;28;20041;-74
2023/03/02 01:17:40;;;;;;;29.42;26.75;;;0.10;99.90;;;;;;5019541;28;20045;-73
2023/03/02 01:20:07;;;;;;;29.08;26.65;;;-0.10;99.90;;;;;;5019164;28;20034;-73
2023/03/02 01:22:34;;;;;;;29.13;26.60;;;-0.10;99.90;;;;;;4995149;28;20140;-74
2023/03/02 01:25:03;;;;;;;29.73;27.13;;;-0.20;99.90;;;;;;4989189;28;20076;-73
2023/03/02 01:27:29;;;;;;;30.90;28.05;;;-0.20;99.90;;;;;;5020110;28;20562;-74
2023/03/02 01:29:56;;;;;;;28.95;26.35;;;-0.20;99.90;;;;;;5003562;28;20057;-73
2023/03/02 01:32:23;;;;;;;29.98;27.20;;;-0.20;99.90;;;;;;4996952;28;20084;-74
2023/03/02 01:34:50;;;;;;;28.98;26.45;;;-0.10;99.90;;;;;;5029655;28;20305;-73
2023/03/02 01:37:19;;;;;;;28.02;25.42;;;0.10;99.90;;;;;;5019046;28;20342;-74
2023/03/02 01:39:46;;;;;;;29.52;27.00;;;0.20;99.90;;;;;;5008548;28;20045;-74
2023/03/02 01:42:13;;;;;;;29.45;26.77;;;0.10;99.90;;;;;;5000115;28;20140;-73
2023/03/02 01:44:48;;;;;;;28.63;26.17;;;0.00;99.90;;;;;;5000449;28;20068;-74
2023/03/02 01:47:27;;;;;;;29.58;26.98;;;0.00;99.90;;;;;;5016933;28;20079;-73
2023/03/02 01:49:59;;;;;;;27.65;25.33;;;0.10;99.90;;;;;;4998308;28;20376;-74
2023/03/02 01:52:32;;;;;;;30.08;27.52;;;0.40;99.90;;;;;;5002491;28;20084;-74
2023/03/02 01:55:02;;;;;;;28.67;26.20;;;0.50;99.90;;;;;;5005779;28;20113;-73
2023/03/02 01:57:32;;;;;;;29.00;26.55;;;0.50;99.90;;;;;;4998196;28;20106;-74
2023/03/02 02:00:07;;;;;;;29.13;26.38;;;0.30;99.90;;;;;;5000885;28;20046;-74
2023/03/02 02:02:40;;;;;;;29.23;26.73;;;0.30;99.90;;;;;;5013695;28;20130;-73
2023/03/02 02:05:11;;;;;;;28.48;26.08;;;0.20;99.90;;;;;;4996041;28;20045;-73
2023/03/02 02:07:39;;;;;;;29.15;26.55;;;0.20;99.90;;;;;;5025533;28;20805;-74
2023/03/02 02:10:07;;;;;;;29.27;26.70;;;0.40;99.90;;;;;;4992909;28;20818;-73
2023/03/02 02:12:34;;;;;;;30.05;27.38;;;0.50;99.90;;;;;;4981932;28;20318;-73
2023/03/02 02:15:01;;;;;;;29.25;26.60;;;0.50;99.90;;;;;;5000732;28;20045;-74
2023/03/02 02:17:29;;;;;;;29.10;26.48;;;0.50;99.90;;;;;;5001054;28;21020;-74
2023/03/02 02:20:15;;;;;;;29.90;27.10;;;0.50;99.90;;;;;;5000777;28;20384;-72
2023/03/02 02:22:53;;;;;;;29.38;26.58;;;0.40;99.90;;;;;;5001051;28;20366;-75
2023/03/02 02:25:34;;;;;;;29.08;26.50;;;0.40;99.90;;;;;;5000100;28;20449;-73
2023/03/02 02:28:07;;;;;;;31.30;27.90;;;0.40;99.90;;;;;;4997447;28;20049;-74
2023/03/02 02:30:36;;;;;;;30.17;27.42;;;0.30;99.90;;;;;;4998459;28;20151;-74
2023/03/02 02:33:04;;;;;;;29.08;26.63;;;0.40;99.90;;;;;;4998116;28;20143;-74
2023/03/02 02:35:35;;;;;;;29.88;27.13;;;0.40;99.90;;;;;;4999821;28;20038;-74
2023/03/02 02:38:05;;;;;;;29.67;27.08;;;0.30;99.90;;;;;;5019621;28;20424;-72
2023/03/02 02:40:48;;;;;;;29.67;26.88;;;0.50;99.90;;;;;;5021221;28;20411;-72
2023/03/02 02:43:19;;;;;;;30.80;27.63;;;0.40;99.90;;;;;;4998812;28;20053;-72
2023/03/02 02:45:50;;;;;;;29.73;27.10;;;0.20;99.90;;;;;;4999471;28;20045;-72
2023/03/02 02:48:19;;;;;;;29.42;26.85;;;0.20;99.90;;;;;;5000488;28;20147;-72
2023/03/02 02:50:46;;;;;;;29.02;26.42;;;0.10;99.90;;;;;;5003771;28;20038;-72
2023/03/02 02:53:21;;;;;;;29.42;26.60;;;0.10;99.90;;;;;;4999696;28;20041;-73
2023/03/02 02:55:50;;;;;;;28.10;25.63;;;0.10;99.90;;;;;;5016769;28;20045;-73
2023/03/02 02:58:27;;;;;;;28.90;25.92;;;0.10;99.90;;;;;;5001400;28;20766;-73
2023/03/02 03:00:54;;;;;;;29.63;27.13;;;0.30;99.90;;;;;;4998523;28;20056;-72
2023/03/02 03:03:29;;;;;;;29.23;26.63;;;0.30;99.90;;;;;;5014633;28;20116;-73
2023/03/02 03:06:03;;;;;;;29.13;26.48;;;0.30;99.90;;;;;;5009648;28;20136;-72
2023/03/02 03:08:42;;;;;;;29.58;26.63;;;0.20;99.90;;;;;;5010018;28;20052;-72
2023/03/02 03:11:22;;;;;;;29.10;26.35;;;0.10;99.90;;;;;;5002572;28;20049;-72
2023/03/02 03:13:59;;;;;;;28.75;26.15;;;-0.10;99.90;;;;;;4991212;28;20503;-72
2023/03/02 03:16:28;;;;;;;28.67;26.17;;;-0.20;99.90;;;;;;4987634;28;20306;-73
2023/03/02 03:19:00;;;;;;;28.60;26.00;;;-0.10;99.90;;;;;;5005114;28;20593;-72
2023/03/02 03:21:27;;;;;;;28.92;26.08;;;-0.10;99.90;;;;;;5002014;28;20148;-72
2023/03/02 03:23:57;;;;;;;29.52;26.70;;;-0.10;99.90;;;;;;5006241;28;20045;-71
2023/03/02 03:26:24;;;;;;;28.73;25.92;;;-0.20;99.90;;;;;;4996306;28;20055;-72
2023/03/02 03:28:51;;;;;;;28.65;26.13;;;-0.20;99.90;;;;;;4997033;28;20041;-72
2023/03/02 03:31:18;;;;;;;29.00;26.13;;;-0.30;99.90;;;;;;4997017;28;20396;-73
2023/03/02 03:33:45;;;;;;;28.02;25.55;;;-0.40;99.90;;;;;;4988854;28;20466;-74
2023/03/02 03:36:12;;;;;;;29.45;26.92;;;-0.50;99.90;;;;;;4999053;28;20038;-74
2023/03/02 03:38:39;;;;;;;29.13;26.63;;;-0.60;99.90;;;;;;5006534;28;20604;-74
2023/03/02 03:41:06;;;;;;;28.60;26.13;;;-0.70;99.90;;;;;;5002134;28;20078;-74
2023/03/02 03:43:33;;;;;;;29.67;27.15;;;-0.90;99.90;;;;;;5005012;28;20064;-74
2023/03/02 03:46:00;;;;;;;28.98;26.48;;;-1.00;99.90;;;;;;5005085;28;20107;-74
2023/03/02 03:48:27;;;;;;;29.02;26.50;;;-1.00;99.90;;;;;;5019025;28;20049;-74
2023/03/02 03:50:53;;;;;;;29.05;26.30;;;-1.10;99.90;;;;;;5006036;28;20163;-73
2023/03/02 03:53:20;;;;;;;29.63;26.92;;;-1.20;99.90;;;;;;5023650;28;20045;-75
2023/03/02 03:55:49;;;;;;;30.05;27.38;;;-1.20;99.90;;;;;;5023662;28;20041;-74
2023/03/02 03:58:16;;;;;;;29.23;26.70;;;-1.20;99.90;;;;;;5032118;28;20068;-73
2023/03/02 04:00:42;;;;;;;29.35;26.80;;;-1.40;99.90;;;;;;5001002;28;20503;-73
2023/03/02 04:03:10;;;;;;;30.25;27.48;;;-1.40;99.90;;;;;;5006933;28;20047;-73
2023/03/02 04:05:36;;;;;;;29.35;26.60;;;-1.20;99.90;;;;;;4984476;28;20046;-73
2023/03/02 04:08:04;;;;;;;29.88;27.23;;;-1.20;99.90;;;;;;4999437;28;20052;-73
2023/03/02 04:10:31;;;;;;;28.60;25.80;;;-1.20;99.90;;;;;;5003511;28;20045;-72
2023/03/02 04:12:59;;;;;;;29.73;26.45;;;-1.10;99.90;;;;;;4987250;28;20048;-72
2023/03/02 04:15:26;;;;;;;27.70;25.20;;;-1.00;99.90;;;;;;5002897;28;20072;-72
2023/03/02 04:17:54;;;;;;;27.05;24.83;;;-0.80;99.90;;;;;;4988514;28;20051;-72
2023/03/02 04:20:23;;;;;;;28.00;25.42;;;-0.60;99.90;;;;;;5019783;28;20033;-71
2023/03/02 04:22:53;;;;;;;27.95;25.27;;;-0.30;99.90;;;;;;5012787;28;20400;-72
2023/03/02 04:25:23;;;;;;;28.38;25.88;;;-0.20;99.90;;;;;;5003547;28;20136;-72
2023/03/02 04:27:53;;;;;;;29.10;26.55;;;-0.10;99.90;;;;;;4992977;28;20396;-74
2023/03/02 04:30:24;;;;;;;29.83;26.67;;;0.00;99.90;;;;;;5004735;28;20049;-73
2023/03/02 04:32:51;;;;;;;29.77;26.80;;;0.10;99.90;;;;;;5003921;28;20067;-74
2023/03/02 04:35:18;;;;;;;30.95;28.10;;;0.10;99.90;;;;;;4984870;28;20038;-73
2023/03/02 04:37:46;;;;;;;29.25;26.48;;;0.10;99.90;;;;;;4985610;28;20401;-73
2023/03/02 04:40:14;;;;;;;32.17;28.75;;;0.00;99.90;;;;;;4997834;28;20239;-73
2023/03/02 04:42:43;;;;;;;60.83;39.63;;;0.00;99.90;;;;;;5006273;28;20037;-73
2023/03/02 04:45:12;;;;;;;106.40;51.67;;;0.20;99.90;;;;;;5024079;28;20055;-72
2023/03/02 04:47:39;;;;;;;105.78;51.25;;;0.00;99.90;;;;;;5020037;28;20049;-74
2023/03/02 04:50:07;;;;;;;153.57;64.63;;;-0.10;99.90;;;;;;5019966;28;20088;-75
2023/03/02 04:52:34;;;;;;;85.43;45.42;;;-0.10;99.90;;;;;;4990337;28;20210;-72
2023/03/02 04:55:01;;;;;;;59.17;36.28;;;-0.10;99.90;;;;;;5006422;28;20135;-75
2023/03/02 04:57:27;;;;;;;71.30;40.05;;;-0.10;99.90;;;;;;4990459;28;20033;-73
2023/03/02 04:59:54;;;;;;;32.13;28.35;;;-0.20;99.90;;;;;;5014654;28;20434;-73
2023/03/02 05:02:21;;;;;;;40.78;32.60;;;-0.10;99.90;;;;;;4993766;28;20041;-73
2023/03/02 05:04:47;;;;;;;31.05;27.88;;;-0.10;99.90;;;;;;4989434;28;20106;-72
2023/03/02 05:07:14;;;;;;;30.45;27.65;;;0.00;99.90;;;;;;5005508;28;20037;-73
2023/03/02 05:09:41;;;;;;;29.60;26.80;;;-0.10;99.90;;;;;;4998725;28;20080;-72
2023/03/02 05:12:08;;;;;;;30.98;27.95;;;-0.10;99.90;;;;;;5007778;28;20080;-73
2023/03/02 05:14:34;;;;;;;30.40;27.38;;;0.00;99.90;;;;;;5000972;28;20050;-72
2023/03/02 05:17:01;;;;;;;29.65;26.90;;;-0.10;99.90;;;;;;5009449;28;20135;-72
2023/03/02 05:19:28;;;;;;;30.65;27.85;;;-0.20;99.90;;;;;;4996861;28;20799;-72
2023/03/02 05:21:55;;;;;;;31.50;28.67;;;-0.10;99.90;;;;;;5007773;28;20042;-73
2023/03/02 05:24:22;;;;;;;30.33;27.52;;;-0.10;99.90;;;;;;5016700;28;20364;-73
2023/03/02 05:26:49;;;;;;;31.70;28.70;;;-0.10;99.90;;;;;;5022110;28;20037;-72
2023/03/02 05:29:16;;;;;;;32.08;29.17;;;-0.10;99.90;;;;;;5004504;28;20213;-73
2023/03/02 05:31:44;;;;;;;32.67;28.98;;;-0.20;99.90;;;;;;5004229;28;20049;-73
2023/03/02 05:34:13;;;;;;;31.85;28.85;;;-0.20;99.90;;;;;;5004142;28;20208;-72
2023/03/02 05:36:40;;;;;;;32.15;29.05;;;-0.30;99.90;;;;;;4981104;28;20124;-72
2023/03/02 05:39:07;;;;;;;31.15;28.05;;;-0.30;99.90;;;;;;5017849;28;20296;-72
2023/03/02 05:41:35;;;;;;;31.38;28.30;;;-0.20;99.90;;;;;;5024312;28;20035;-72
2023/03/02 05:44:03;;;;;;;30.73;27.80;;;-0.20;99.90;;;;;;5004200;28;20049;-72
2023/03/02 05:46:30;;;;;;;31.02;28.25;;;-0.30;99.90;;;;;;4982806;28;20072;-72
2023/03/02 05:48:57;;;;;;;31.30;28.02;;;-0.40;99.90;;;;;;5021333;28;20079;-72
2023/03/02 05:51:24;;;;;;;30.92;28.23;;;-0.50;99.90;;;;;;4997453;28;20418;-72
2023/03/02 05:53:51;;;;;;;30.45;27.75;;;-0.50;99.90;;;;;;4993729;28;20049;-73
2023/03/02 05:56:19;;;;;;;30.42;27.83;;;-0.60;99.90;;;;;;5024669;28;20730;-73
2023/03/02 05:58:46;;;;;;;31.23;28.35;;;-0.50;99.90;;;;;;5022432;28;20055;-73
2023/03/02 06:01:13;;;;;;;32.70;29.67;;;-0.60;99.90;;;;;;5008986;28;20238;-73
2023/03/02 06:03:42;;;;;;;31.48;28.48;;;-0.60;99.90;;;;;;5020821;28;20049;-73
2023/03/02 06:06:12;;;;;;;31.63;28.67;;;-0.60;99.90;;;;;;5016135;28;20522;-72
2023/03/02 06:08:40;;;;;;;33.72;30.55;;;-0.60;99.90;;;;;;4997823;28;20049;-73
2023/03/02 06:11:07;;;;;;;36.22;33.05;;;-0.60;99.90;;;;;;4996048;28;20073;-73
2023/03/02 06:13:34;;;;;;;31.77;28.50;;;-0.60;99.90;;;;;;4999289;28;20140;-73
2023/03/02 06:16:01;;;;;;;30.83;27.83;;;-0.70;99.90;;;;;;5017459;28;20079;-72
2023/03/02 06:18:28;;;;;;;31.77;28.83;;;-0.80;99.90;;;;;;5005465;28;20042;-72
2023/03/02 06:20:55;;;;;;;30.63;27.92;;;-0.90;99.90;;;;;;4998208;28;20057;-73
2023/03/02 06:23:22;;;;;;;35.90;32.70;;;-1.00;99.90;;;;;;5010220;28;20041;-71
2023/03/02 06:25:48;;;;;;;35.67;32.55;;;-1.00;99.90;;;;;;4997662;28;20045;-72
2023/03/02 06:28:17;;;;;;;41.25;37.75;;;-1.00;99.90;;;;;;5022129;28;20608;-72
2023/03/02 06:30:47;;;;;;;41.42;38.03;;;-1.10;99.90;;;;;;5008556;28;20153;-72
2023/03/02 06:33:19;;;;;;;41.58;38.05;;;-1.00;99.90;;;;;;5001021;28;20080;-71
2023/03/02 06:35:47;;;;;;;39.70;36.70;;;-0.90;99.90;;;;;;5027119;28;20044;-72
2023/03/02 06:38:14;;;;;;;40.20;36.72;;;-0.70;99.90;;;;;;4998754;28;20069;-72
2023/03/02 06:40:41;;;;;;;39.13;36.00;;;-0.70;99.90;;;;;;5002628;28;20044;-72
2023/03/02 06:43:08;;;;;;;40.28;36.65;;;-0.60;99.90;;;;;;5015823;28;20648;-74
2023/03/02 06:45:34;;;;;;;41.42;37.78;;;-0.60;99.90;;;;;;5005519;28;20280;-74
2023/03/02 06:48:01;;;;;;;39.50;35.92;;;-0.70;99.90;;;;;;5025966;28;20403;-76
2023/03/02 06:50:28;;;;;;;39.55;36.17;;;-0.70;99.90;;;;;;5003544;28;20037;-74
2023/03/02 06:52:55;;;;;;;39.95;36.80;;;-0.70;99.90;;;;;;5027468;28;20053;-73
2023/03/02 06:55:21;;;;;;;39.88;36.35;;;-0.80;99.90;;;;;;5015566;28;20478;-74
2023/03/02 06:57:48;;;;;;;39.42;36.33;;;-0.70;99.90;;;;;;5025036;28;20033;-74
2023/03/02 07:00:16;;;;;;;39.35;36.13;;;-0.80;99.90;;;;;;5023447;28;20378;-72
2023/03/02 07:02:44;;;;;;;39.50;36.25;;;-0.70;99.90;;;;;;5007638;28;20029;-74
2023/03/02 07:05:11;;;;;;;40.00;36.40;;;-0.80;99.90;;;;;;5002007;28;20058;-73
2023/03/02 07:07:38;;;;;;;41.15;37.30;;;-0.60;99.90;;;;;;4998539;28;20103;-72
2023/03/02 07:10:06;;;;;;;40.00;36.33;;;-0.60;99.90;;;;;;4999962;28;20049;-71
2023/03/02 07:12:33;;;;;;;41.47;37.83;;;-0.50;99.90;;;;;;5020599;28;20064;-75
2023/03/02 07:15:00;;;;;;;43.47;39.03;;;-0.30;99.90;;;;;;5004542;28;20040;-73
2023/03/02 07:17:27;;;;;;;45.47;40.72;;;-0.20;99.90;;;;;;5003184;28;20037;-73
2023/03/02 07:19:53;;;;;;;40.53;36.92;;;-0.30;99.90;;;;;;5021877;28;20048;-73
2023/03/02 07:22:20;;;;;;;44.05;39.47;;;-0.10;99.90;;;;;;5007456;28;20147;-74
2023/03/02 07:24:47;;;;;;;41.20;37.20;;;-0.10;99.90;;;;;;5021325;28;20055;-73
2023/03/02 07:27:13;;;;;;;44.63;41.13;;;0.00;99.90;;;;;;5025350;28;20342;-74
2023/03/02 07:29:40;;;;;;;41.60;38.63;;;0.20;99.90;;;;;;5004840;28;20084;-74
2023/03/02 07:32:07;;;;;;;41.80;38.75;;;0.30;99.90;;;;;;5027752;28;20523;-74
2023/03/02 07:34:37;;;;;;;40.53;37.25;;;0.30;99.90;;;;;;5025787;28;20081;-73
2023/03/02 07:37:03;;;;;;;38.58;35.60;;;0.40;99.90;;;;;;5006645;28;20189;-74
2023/03/02 07:39:31;;;;;;;38.45;35.50;;;0.50;99.90;;;;;;4989970;28;20283;-74
2023/03/02 07:41:59;;;;;;;40.65;37.45;;;0.50;99.90;;;;;;5021243;28;20049;-74
2023/03/02 07:44:28;;;;;;;39.88;36.88;;;0.60;99.90;;;;;;5018441;28;20049;-74
2023/03/02 07:46:55;;;;;;;41.17;38.28;;;0.70;99.90;;;;;;5018777;28;20057;-73
2023/03/02 07:49:22;;;;;;;41.40;38.03;;;0.80;99.90;;;;;;5019833;28;20152;-73
2023/03/02 07:51:48;;;;;;;42.83;39.63;;;0.90;99.90;;;;;;5005416;28;20041;-73
2023/03/02 07:54:15;;;;;;;39.95;36.85;;;1.00;99.90;;;;;;5025149;28;20049;-72
2023/03/02 07:56:42;;;;;;;39.30;36.45;;;1.10;99.90;;;;;;5004001;28;20033;-73
2023/03/02 07:59:10;;;;;;;40.97;37.58;;;1.20;99.90;;;;;;4999420;28;20274;-71
2023/03/02 08:01:37;;;;;;;38.95;35.92;;;1.30;99.90;;;;;;5014923;28;20046;-71
2023/03/02 08:04:04;;;;;;;39.15;36.28;;;1.40;99.90;;;;;;5022609;28;20575;-71
2023/03/02 08:06:31;;;;;;;40.97;38.05;;;1.50;99.90;;;;;;5015695;28;20051;-72
2023/03/02 08:08:59;;;;;;;40.20;37.17;;;1.60;99.90;;;;;;5031056;28;20045;-71
2023/03/02 08:11:25;;;;;;;42.13;39.03;;;1.70;99.90;;;;;;5023471;28;21155;-71
2023/03/02 08:13:52;;;;;;;41.72;38.63;;;1.80;99.90;;;;;;5001680;28;20033;-72
2023/03/02 08:16:20;;;;;;;43.00;39.83;;;1.90;99.90;;;;;;5000385;28;20052;-72
2023/03/02 08:18:47;;;;;;;42.90;39.92;;;2.00;99.90;;;;;;5013565;28;20072;-72
2023/03/02 08:21:16;;;;;;;42.72;39.92;;;2.20;99.90;;;;;;5011311;28;20041;-73
2023/03/02 08:23:44;;;;;;;41.90;38.75;;;2.30;99.90;;;;;;5006426;28;20431;-72
2023/03/02 08:26:12;;;;;;;42.58;39.67;;;2.50;99.90;;;;;;5001675;28;20515;-72
2023/03/02 08:28:42;;;;;;;43.88;40.78;;;2.50;99.90;;;;;;5006003;28;20045;-73
2023/03/02 08:31:10;;;;;;;44.25;41.40;;;2.80;99.90;;;;;;5003438;28;20352;-72
2023/03/02 08:33:37;;;;;;;45.22;42.13;;;3.10;99.90;;;;;;5001160;28;20059;-73
2023/03/02 08:36:11;;;;;;;48.55;45.42;;;3.40;99.90;;;;;;5002656;28;20176;-72
2023/03/02 08:38:38;;;;;;;47.13;44.13;;;3.80;99.90;;;;;;4999421;28;20046;-72
2023/03/02 08:41:09;;;;;;;47.25;43.92;;;4.20;99.90;;;;;;4985043;28;20123;-71
2023/03/02 08:43:35;;;;;;;45.20;42.30;;;4.40;99.90;;;;;;5020949;28;20075;-72
2023/03/02 08:46:03;;;;;;;47.50;44.28;;;4.70;99.90;;;;;;4978148;28;20122;-72
2023/03/02 08:48:29;;;;;;;48.25;45.05;;;5.20;99.90;;;;;;4996167;28;20099;-71
2023/03/02 08:51:05;;;;;;;46.08;43.08;;;5.60;99.90;;;;;;5019275;28;20052;-74
2023/03/02 08:53:35;;;;;;;45.38;42.50;;;5.30;99.90;;;;;;5002098;28;20045;-74
2023/03/02 08:56:03;;;;;;;45.70;42.53;;;4.70;99.90;;;;;;4993054;28;20447;-71
2023/03/02 08:58:29;;;;;;;46.42;43.33;;;4.70;99.90;;;;;;5000120;28;20033;-72
2023/03/02 09:00:56;;;;;;;45.15;42.25;;;4.80;99.90;;;;;;4997450;28;20297;-71
2023/03/02 09:03:23;;;;;;;44.50;41.58;;;4.90;99.90;;;;;;5004205;28;20037;-71
2023/03/02 09:05:50;;;;;;;38.65;35.95;;;4.80;99.90;;;;;;5014863;28;20388;-74
2023/03/02 09:08:16;;;;;;;38.88;36.22;;;4.80;99.90;;;;;;5005951;28;20243;-74
2023/03/02 09:10:43;;;;;;;37.60;35.00;;;4.90;99.90;;;;;;5017326;28;20049;-74
2023/03/02 09:13:10;;;;;;;39.10;36.38;;;5.10;99.90;;;;;;4996672;28;20053;-72
2023/03/02 09:15:37;;;;;;;40.03;37.15;;;5.20;99.90;;;;;;5006200;28;20067;-72
2023/03/02 09:18:03;;;;;;;40.80;37.85;;;5.40;99.90;;;;;;4997804;28;20897;-71
2023/03/02 09:20:31;;;;;;;40.10;37.10;;;5.20;99.90;;;;;;5017088;28;20061;-70
2023/03/02 09:22:57;;;;;;;38.95;36.22;;;5.40;99.90;;;;;;5025277;28;20076;-72
2023/03/02 09:25:24;;;;;;;40.50;37.60;;;5.10;99.90;;;;;;5013983;28;20033;-71
2023/03/02 09:27:50;;;;;;;40.45;37.55;;;5.10;99.90;;;;;;5003112;28;20470;-71
2023/03/02 09:30:17;;;;;;;40.28;37.30;;;5.20;99.90;;;;;;5002174;28;20140;-72
2023/03/02 09:32:44;;;;;;;42.03;39.15;;;5.40;99.90;;;;;;5000996;28;20052;-71
2023/03/02 09:35:11;;;;;;;40.70;37.75;;;5.80;99.90;;;;;;5012520;28;20360;-71
2023/03/02 09:37:38;;;;;;;41.80;38.70;;;5.90;99.90;;;;;;4983987;28;20060;-71
2023/03/02 09:40:15;;;;;;;41.75;38.80;;;5.60;99.90;;;;;;4997441;28;20281;-71
2023/03/02 09:42:44;;;;;;;41.38;38.58;;;5.70;99.90;;;;;;5015966;28;20069;-72
2023/03/02 09:45:29;;;;;;;39.00;36.30;;;5.50;99.90;;;;;;5018253;28;20041;-71
2023/03/02 09:48:04;;;;;;;41.55;38.40;;;5.80;99.90;;;;;;5016134;28;20075;-71
2023/03/02 09:50:34;;;;;;;41.22;38.42;;;6.10;99.90;;;;;;5016248;28;20068;-71
2023/03/02 09:53:33;;;;;;;41.75;38.70;;;5.90;99.90;;;;;;5007929;28;20072;-72
2023/03/02 09:56:01;;;;;;;41.65;38.45;;;6.10;99.90;;;;;;4974444;28;20660;-71
2023/03/02 09:58:34;;;;;;;40.05;37.35;;;6.20;99.90;;;;;;5014597;28;20060;-71
2023/03/02 10:01:08;;;;;;;39.05;36.20;;;5.90;99.90;;;;;;5021491;28;20141;-74
2023/03/02 10:03:52;;;;;;;39.03;36.00;;;5.60;99.90;;;;;;5009508;28;20428;-71
2023/03/02 10:06:20;;;;;;;40.22;37.25;;;5.90;99.90;;;;;;5011534;28;20049;-71
2023/03/02 10:08:49;;;;;;;41.25;38.38;;;5.90;99.90;;;;;;5017083;28;20057;-71
2023/03/02 10:11:54;;;;;;;41.17;38.13;;;6.10;99.90;;;;;;4994144;28;20491;-71
2023/03/02 10:14:33;;;;;;;40.05;37.25;;;6.20;99.90;;;;;;5012308;28;20103;-70
2023/03/02 10:17:24;;;;;;;50.63;46.97;;;5.80;99.90;;;;;;5011939;28;20144;-70
2023/03/02 10:19:56;;;;;;;48.83;45.63;;;5.90;99.90;;;;;;5001783;28;20041;-72
2023/03/02 10:22:49;;;;;;;48.33;45.08;;;6.00;99.90;;;;;;5003629;28;20135;-71
2023/03/02 10:25:24;;;;;;;49.20;46.03;;;6.30;99.90;;;;;;5011640;28;20099;-72
2023/03/02 10:28:00;;;;;;;48.40;45.15;;;6.60;99.90;;;;;;4999311;28;20428;-73
2023/03/02 10:30:35;;;;;;;48.63;45.53;;;6.80;99.90;;;;;;5003906;28;20297;-71
2023/03/02 10:33:13;;;;;;;50.08;46.90;;;7.20;99.90;;;;;;5009170;28;20443;-72
2023/03/02 10:35:46;;;;;;;50.20;46.90;;;7.40;99.90;;;;;;4997957;28;20519;-72
2023/03/02 10:38:24;;;;;;;49.65;46.65;;;7.30;99.90;;;;;;4995051;28;20050;-71
2023/03/02 10:40:59;;;;;;;50.80;47.50;;;7.20;99.90;;;;;;5021563;28;20132;-74
2023/03/02 10:43:50;;;;;;;50.23;47.00;;;7.40;99.90;;;;;;4999837;28;20064;-76
2023/03/02 10:46:18;;;;;;;47.45;44.40;;;7.50;99.90;;;;;;4996609;28;20045;-73
2023/03/02 10:48:58;;;;;;;50.40;47.08;;;7.10;99.90;;;;;;5048340;22;20041;-74
2023/03/02 10:51:28;;;;;;;50.53;47.33;;;7.50;99.90;;;;;;5010759;28;21023;-74
2023/03/02 10:54:02;;;;;;;50.95;47.60;;;7.40;99.90;;;;;;5032487;28;20045;-74
2023/03/02 10:56:30;;;;;;;51.50;48.22;;;7.80;99.90;;;;;;5032624;28;20556;-74
2023/03/02 10:59:02;;;;;;;51.03;47.70;;;7.80;99.90;;;;;;5015567;28;20251;-74
2023/03/02 11:01:30;;;;;;;48.67;45.47;;;7.70;99.90;;;;;;5030537;28;20352;-74
2023/03/02 11:03:59;;;;;;;49.40;46.28;;;7.90;99.90;;;;;;5013976;28;20045;-74
2023/03/02 11:06:27;;;;;;;48.90;45.58;;;7.70;99.90;;;;;;5035096;28;20621;-74
2023/03/02 11:09:13;;;;;;;50.88;47.40;;;7.50;99.90;;;;;;5017502;28;20066;-75
2023/03/02 11:11:52;;;;;;;47.15;44.03;;;7.60;99.90;;;;;;5012556;28;20053;-75
2023/03/02 11:14:19;;;;;;;47.05;44.05;;;7.90;99.90;;;;;;5047520;28;20576;-74
2023/03/02 11:16:46;;;;;;;48.83;45.42;;;7.60;99.90;;;;;;5046615;28;20052;-75
2023/03/02 11:19:28;;;;;;;47.95;44.58;;;7.40;99.90;;;;;;5010677;28;20052;-74
2023/03/02 11:22:30;;;;;;;48.22;44.75;;;7.70;99.90;;;;;;5036928;28;20183;-74
2023/03/02 11:25:00;;;;;;;48.90;45.25;;;7.70;99.90;;;;;;4999856;28;20080;-75
2023/03/02 11:27:30;;;;;;;49.17;45.85;;;8.00;99.90;;;;;;5007374;28;20438;-75
2023/03/02 11:30:03;;;;;;;48.60;45.50;;;8.20;99.90;;;;;;5019488;28;20053;-75
2023/03/02 11:33:08;;;;;;;48.13;44.92;;;8.50;99.90;;;;;;5018642;28;20049;-75
2023/03/02 11:35:53;;;;;;;48.78;45.35;;;8.60;99.90;;;;;;5035734;28;20047;-73
2023/03/02 11:38:27;;;;;;;50.17;46.88;;;8.80;99.90;;;;;;5038209;28;20048;-73
2023/03/02 11:41:14;;;;;;;47.80;44.80;;;8.80;99.90;;;;;;5018438;28;20053;-73
2023/03/02 11:43:40;;;;;;;50.03;46.63;;;8.90;99.90;;;;;;5033464;28;20051;-71
2023/03/02 11:46:18;;;;;;;50.63;47.25;;;8.50;99.90;;;;;;5021412;28;20048;-71
2023/03/02 11:48:52;;;;;;;49.40;46.15;;;8.60;99.90;;;;;;5017828;28;20118;-72
2023/03/02 11:51:33;;;;;;;50.85;47.25;;;8.90;99.90;;;;;;5017632;28;20601;-72
2023/03/02 11:54:04;;;;;;;48.97;45.72;;;8.60;99.90;;;;;;5017531;28;20496;-72
2023/03/02 11:56:35;;;;;;;48.53;45.33;;;8.90;99.90;;;;;;5019648;28;20044;-72
2023/03/02 11:59:05;;;;;;;48.60;45.55;;;8.80;99.90;;;;;;5031467;28;20041;-74
2023/03/02 12:01:34;;;;;;;49.90;46.70;;;8.80;99.90;;;;;;5033517;28;20041;-71
2023/03/02 12:04:23;;;;;;;48.38;45.15;;;9.10;99.90;;;;;;5012170;28;20132;-72
2023/03/02 12:06:50;;;;;;;48.58;45.47;;;9.20;99.90;;;;;;5040321;28;20045;-74
2023/03/02 12:09:23;;;;;;;50.22;46.75;;;8.50;99.90;;;;;;5007857;28;20407;-74
2023/03/02 12:12:17;;;;;;;50.20;47.00;;;8.40;99.90;;;;;;5015049;28;20046;-72
2023/03/02 12:14:44;;;;;;;48.88;45.70;;;8.70;99.90;;;;;;5029715;28;20211;-72
2023/03/02 12:17:25;;;;;;;47.22;44.20;;;9.20;99.90;;;;;;5031209;28;20415;-72
2023/03/02 12:20:26;;;;;;;48.30;45.00;;;9.00;99.90;;;;;;5015918;28;20060;-72
2023/03/02 12:23:05;;;;;;;49.65;46.53;;;8.90;99.90;;;;;;5036371;28;21333;-72
2023/03/02 12:25:40;;;;;;;50.30;47.03;;;8.90;99.90;;;;;;5017348;28;20052;-72
2023/03/02 12:28:25;;;;;;;51.28;47.97;;;8.70;99.90;;;;;;5009693;28;20045;-72
2023/03/02 12:31:11;;;;;;;49.72;46.22;;;8.70;99.90;;;;;;5009040;28;20057;-72
2023/03/02 12:33:45;;;;;;;47.45;44.25;;;9.00;99.90;;;;;;5035816;28;20040;-72
2023/03/02 12:36:30;;;;;;;49.25;45.95;;;9.20;99.90;;;;;;5037889;28;20045;-72
2023/03/02 12:39:29;;;;;;;50.42;47.05;;;9.30;99.90;;;;;;5010495;28;20168;-72
2023/03/02 12:42:02;;;;;;;50.85;47.17;;;9.30;99.90;;;;;;5040235;28;20140;-72
2023/03/02 12:44:50;;;;;;;50.25;47.15;;;9.40;99.90;;;;;;5012568;28;20037;-72
2023/03/02 12:47:25;;;;;;;50.55;47.22;;;9.10;99.90;;;;;;5035880;28;20056;-72
2023/03/02 12:49:56;;;;;;;50.28;46.88;;;9.50;99.90;;;;;;5017696;28;20041;-72